createdAt,value
2022-08-20T00:00:27.069Z,94513.09
2022-08-20T00:02:56.640Z,94517.00
2022-08-20T00:05:27.003Z,94517.38
2022-08-20T00:07:54.878Z,94518.66
2022-08-20T00:10:22.805Z,94514.69
2022-08-20T00:17:55.297Z,94514.22
2022-08-20T00:20:25.681Z,94511.50
2022-08-20T00:22:53.569Z,94509.03
2022-08-20T00:25:21.155Z,94503.88
2022-08-20T00:27:48.774Z,94507.16
2022-08-20T00:30:17.451Z,94501.28
2022-08-20T00:32:46.576Z,94493.09
2022-08-20T00:40:22.938Z,94491.94
2022-08-20T00:42:57.901Z,94503.59
2022-08-20T00:45:26.892Z,94505.84
2022-08-20T00:47:54.751Z,94494.59
2022-08-20T00:50:29.492Z,94494.75
2022-08-20T00:52:57.647Z,94497.47
2022-08-20T00:55:31.379Z,94488.69
2022-08-20T01:03:11.192Z,94486.88
2022-08-20T01:05:40.100Z,94483.50
2022-08-20T01:08:08.753Z,94475.94
2022-08-20T01:10:39.004Z,94469.25
2022-08-20T01:13:10.456Z,94461.63
2022-08-20T01:15:43.190Z,94461.69
2022-08-20T01:18:12.427Z,94461.72
2022-08-20T01:25:46.907Z,94464.25
2022-08-20T01:28:16.701Z,94462.00
2022-08-20T01:30:44.293Z,94465.97
2022-08-20T01:33:11.864Z,94470.03
2022-08-20T01:35:41.619Z,94472.47
2022-08-20T01:38:09.702Z,94472.66
2022-08-20T01:40:55.515Z,94467.88
2022-08-20T01:48:30.025Z,94468.16
2022-08-20T01:51:04.045Z,94470.56
2022-08-20T01:53:34.586Z,94468.75
2022-08-20T01:56:03.102Z,94461.50
2022-08-20T01:58:31.186Z,94463.78
2022-08-20T02:00:58.742Z,94455.13
2022-08-20T02:03:26.229Z,94450.78
2022-08-20T02:10:57.984Z,94458.38
2022-08-20T02:13:25.484Z,94452.81
2022-08-20T02:15:52.862Z,94448.50
2022-08-20T02:18:20.451Z,94452.28
2022-08-20T02:20:48.710Z,94455.31
2022-08-20T02:23:16.022Z,94452.09
2022-08-20T02:25:47.749Z,94461.19
2022-08-20T02:33:24.379Z,94470.78
2022-08-20T02:35:56.362Z,94464.47
2022-08-20T02:38:24.295Z,94459.19
2022-08-20T02:40:51.813Z,94460.28
2022-08-20T02:43:19.659Z,94462.59
2022-08-20T02:45:47.409Z,94461.88
2022-08-20T02:48:22.261Z,94465.16
2022-08-20T02:55:48.891Z,94466.13
2022-08-20T02:58:17.508Z,94458.88
2022-08-20T03:00:46.249Z,94463.69
2022-08-20T03:03:14.648Z,94463.47
2022-08-20T03:05:44.222Z,94456.06
2022-08-20T03:08:14.191Z,94457.84
2022-08-20T03:10:43.949Z,94465.59
2022-08-20T03:18:15.984Z,94460.47
2022-08-20T03:20:45.971Z,94454.63
2022-08-20T03:23:14.101Z,94459.84
2022-08-20T03:25:41.625Z,94458.41
2022-08-20T03:28:09.641Z,94467.31
2022-08-20T03:30:37.455Z,94469.53
2022-08-20T03:33:05.028Z,94474.94
2022-08-20T03:40:38.032Z,94481.59
2022-08-20T03:43:08.546Z,94485.00
2022-08-20T03:45:37.176Z,94488.91
2022-08-20T03:48:07.020Z,94483.69
2022-08-20T03:50:35.084Z,94484.94
2022-08-20T03:53:03.887Z,94482.53
2022-08-20T03:55:32.427Z,94477.75
2022-08-20T04:03:05.212Z,94478.19
2022-08-20T04:05:33.827Z,94475.19
2022-08-20T04:08:03.463Z,94482.25
2022-08-20T04:10:31.777Z,94477.69
2022-08-20T04:12:59.428Z,94468.06
2022-08-20T04:15:27.422Z,94469.75
2022-08-20T04:17:55.105Z,94463.50
2022-08-20T04:25:27.951Z,94479.00
2022-08-20T04:27:58.064Z,94480.78
2022-08-20T04:30:26.805Z,94483.97
2022-08-20T04:32:55.571Z,94495.00
2022-08-20T04:35:24.494Z,94498.56
2022-08-20T04:37:59.446Z,94497.84
2022-08-20T04:40:46.390Z,94489.28
2022-08-20T04:48:17.218Z,94490.56
2022-08-20T04:50:46.509Z,94490.34
2022-08-20T04:53:17.508Z,94493.34
2022-08-20T04:55:46.429Z,94491.91
2022-08-20T04:58:17.704Z,94491.47
2022-08-20T05:00:47.855Z,94497.06
2022-08-20T05:03:16.463Z,94501.03
2022-08-20T05:09:19.855Z,94497.00
2022-08-20T05:11:47.379Z,94496.59
2022-08-20T05:14:14.906Z,94500.72
2022-08-20T05:16:42.542Z,94498.56
2022-08-20T05:19:13.058Z,94502.22
2022-08-20T05:21:40.571Z,94501.94
2022-08-20T05:24:09.490Z,94509.84
2022-08-20T05:29:21.333Z,94501.41
2022-08-20T05:31:48.913Z,94493.91
2022-08-20T05:34:16.465Z,94481.00
2022-08-20T05:36:46.910Z,94483.47
2022-08-20T05:39:17.818Z,94488.31
2022-08-20T05:41:45.463Z,94493.19
2022-08-20T05:44:14.293Z,94497.59
2022-08-20T05:51:45.644Z,94499.31
2022-08-20T05:54:13.534Z,94486.91
2022-08-20T05:56:41.732Z,94475.81
2022-08-20T05:59:10.267Z,94478.53
2022-08-20T06:01:39.190Z,94480.06
2022-08-20T06:04:27.341Z,94477.50
2022-08-20T06:06:59.133Z,94480.53
2022-08-20T06:14:31.338Z,94483.38
2022-08-20T06:17:04.705Z,94480.75
2022-08-20T06:19:33.706Z,94476.91
2022-08-20T06:22:18.110Z,94476.41
2022-08-20T06:24:48.317Z,94475.31
2022-08-20T06:27:16.600Z,94477.22
2022-08-20T06:29:45.139Z,94476.22
2022-08-20T06:37:18.117Z,94456.38
2022-08-20T06:39:45.997Z,94463.09
2022-08-20T06:42:13.752Z,94453.53
2022-08-20T06:44:49.815Z,94454.03
2022-08-20T06:47:18.233Z,94457.38
2022-08-20T06:49:47.019Z,94456.84
2022-08-20T06:52:16.473Z,94455.84
2022-08-20T06:59:54.339Z,94465.53
2022-08-20T07:02:23.162Z,94462.03
2022-08-20T07:04:57.732Z,94455.69
2022-08-20T07:07:25.175Z,94459.38
2022-08-20T07:09:59.734Z,94452.28
2022-08-20T07:12:27.517Z,94452.44
2022-08-20T07:14:55.736Z,94449.06
2022-08-20T07:22:27.996Z,94444.72
2022-08-20T07:24:55.572Z,94442.22
2022-08-20T07:27:23.911Z,94438.13
2022-08-20T07:30:12.913Z,94434.00
2022-08-20T07:32:45.274Z,94435.41
2022-08-20T07:35:15.720Z,94435.75
2022-08-20T07:37:46.101Z,94442.41
2022-08-20T07:45:18.226Z,94442.31
2022-08-20T07:47:46.983Z,94443.09
2022-08-20T07:50:17.530Z,94451.25
2022-08-20T07:52:45.740Z,94451.88
2022-08-20T07:55:15.903Z,94441.75
2022-08-20T07:57:46.413Z,94444.28
2022-08-20T08:00:17.074Z,94439.34
2022-08-20T08:07:26.441Z,94435.59
2022-08-20T08:09:55.682Z,94438.03
2022-08-20T08:12:24.130Z,94432.84
2022-08-20T08:14:55.350Z,94429.88
2022-08-20T08:17:23.130Z,94428.03
2022-08-20T08:19:51.346Z,94427.03
2022-08-20T08:22:20.151Z,94425.91
2022-08-20T08:29:51.150Z,94428.81
2022-08-20T08:32:18.933Z,94422.97
2022-08-20T08:34:47.574Z,94420.00
2022-08-20T08:37:15.172Z,94416.47
2022-08-20T08:39:42.698Z,94424.44
2022-08-20T08:42:25.473Z,94417.00
2022-08-20T08:44:54.003Z,94419.75
2022-08-20T08:52:24.530Z,94410.50
2022-08-20T08:54:54.079Z,94409.78
2022-08-20T08:57:21.885Z,94400.75
2022-08-20T09:00:04.335Z,94408.63
2022-08-20T09:02:34.837Z,94398.13
2022-08-20T09:05:12.840Z,94393.41
2022-08-20T09:07:45.538Z,94396.94
2022-08-20T09:12:57.677Z,94397.31
2022-08-20T09:15:25.336Z,94398.16
2022-08-20T09:17:53.077Z,94389.91
2022-08-20T09:20:20.672Z,94385.97
2022-08-20T09:22:55.312Z,94383.19
2022-08-20T09:25:23.334Z,94394.56
2022-08-20T09:27:51.013Z,94385.84
2022-08-20T09:35:22.632Z,94383.81
2022-08-20T09:37:51.673Z,94381.44
2022-08-20T09:40:21.322Z,94377.91
2022-08-20T09:42:50.289Z,94383.34
2022-08-20T09:45:18.664Z,94381.97
2022-08-20T09:48:04.842Z,94391.03
2022-08-20T09:53:28.424Z,94383.44
2022-08-20T09:55:57.073Z,94384.19
2022-08-20T09:58:31.710Z,94397.97
2022-08-20T10:01:01.322Z,94376.47
2022-08-20T10:03:29.120Z,94377.66
2022-08-20T10:05:56.676Z,94389.47
2022-08-20T10:08:24.438Z,94378.22
2022-08-20T10:13:35.875Z,94375.75
2022-08-20T10:16:03.881Z,94388.47
2022-08-20T10:18:31.313Z,94373.94
2022-08-20T10:20:58.853Z,94374.50
2022-08-20T10:23:26.463Z,94382.88
2022-08-20T10:25:54.212Z,94376.03
2022-08-20T10:28:21.875Z,94384.63
2022-08-20T10:35:55.693Z,94377.56
2022-08-20T10:38:27.706Z,94377.53
2022-08-20T10:40:55.225Z,94369.78
2022-08-20T10:43:23.020Z,94365.09
2022-08-20T10:45:51.385Z,94360.44
2022-08-20T10:48:21.508Z,94355.00
2022-08-20T10:50:49.518Z,94348.72
2022-08-20T10:58:06.868Z,94335.66
2022-08-20T11:00:35.514Z,94335.47
2022-08-20T11:03:04.002Z,94331.69
2022-08-20T11:05:31.759Z,94332.44
2022-08-20T11:08:02.760Z,94330.28
2022-08-20T11:10:33.578Z,94319.81
2022-08-20T11:13:01.758Z,94312.63
2022-08-20T11:20:32.936Z,94301.44
2022-08-20T11:23:00.956Z,94298.53
2022-08-20T11:25:29.313Z,94289.69
2022-08-20T11:27:58.067Z,94281.25
2022-08-20T11:30:28.365Z,94279.34
2022-08-20T11:32:57.241Z,94278.94
2022-08-20T11:35:42.230Z,94278.69
2022-08-20T11:43:15.455Z,94267.06
2022-08-20T11:45:44.481Z,94275.88
2022-08-20T11:48:12.236Z,94270.63
2022-08-20T11:50:40.075Z,94267.19
2022-08-20T11:53:08.087Z,94258.19
2022-08-20T11:55:36.578Z,94267.63
2022-08-20T11:58:04.752Z,94273.16
2022-08-20T12:04:54.773Z,94296.22
2022-08-20T12:07:25.400Z,94297.75
2022-08-20T12:09:53.640Z,94306.25
2022-08-20T12:12:23.431Z,94323.84
2022-08-20T12:14:51.792Z,94326.59
2022-08-20T12:17:23.400Z,94328.78
2022-08-20T12:19:52.711Z,94317.78
2022-08-20T12:26:50.133Z,94294.88
2022-08-20T12:29:17.798Z,94295.47
2022-08-20T12:31:45.454Z,94288.31
2022-08-20T12:34:13.121Z,94288.03
2022-08-20T12:36:44.314Z,94268.53
2022-08-20T12:39:11.993Z,94264.50
2022-08-20T12:41:39.635Z,94252.31
2022-08-20T12:49:01.793Z,94259.53
2022-08-20T12:51:29.559Z,94271.50
2022-08-20T12:53:57.245Z,94302.53
2022-08-20T12:56:25.025Z,94316.63
2022-08-20T12:58:52.710Z,94327.50
2022-08-20T13:01:20.443Z,94326.81
2022-08-20T13:03:48.181Z,94337.78
2022-08-20T13:11:19.736Z,94303.72
2022-08-20T13:13:47.673Z,94289.41
2022-08-20T13:16:16.362Z,94287.41
2022-08-20T13:18:45.020Z,94291.25
2022-08-20T13:21:13.282Z,94304.78
2022-08-20T13:23:41.126Z,94312.09
2022-08-20T13:26:09.001Z,94324.06
2022-08-20T13:33:41.408Z,94324.28
2022-08-20T13:36:09.355Z,94308.72
2022-08-20T13:38:37.210Z,94300.97
2022-08-20T13:41:05.270Z,94301.53
2022-08-20T13:43:33.034Z,94319.00
2022-08-20T13:46:00.674Z,94329.19
2022-08-20T13:48:28.295Z,94380.41
2022-08-20T13:55:10.423Z,94471.47
2022-08-20T13:57:38.939Z,94526.69
2022-08-20T14:00:10.139Z,94568.66
2022-08-20T14:02:38.721Z,94583.75
2022-08-20T14:05:07.319Z,94554.88
2022-08-20T14:07:35.149Z,94552.97
2022-08-20T14:10:06.748Z,94531.41
2022-08-20T14:15:12.760Z,94505.84
2022-08-20T14:17:42.663Z,94512.66
2022-08-20T14:20:13.240Z,94546.66
2022-08-20T14:22:41.072Z,94537.53
2022-08-20T14:25:11.048Z,94536.16
2022-08-20T14:27:39.424Z,94534.81
2022-08-20T14:30:11.192Z,94502.44
2022-08-20T14:37:40.891Z,94443.59
2022-08-20T14:40:11.474Z,94438.03
2022-08-20T14:42:39.358Z,94410.06
2022-08-20T14:45:09.554Z,94389.34
2022-08-20T14:47:40.124Z,94377.00
2022-08-20T14:50:11.285Z,94392.75
2022-08-20T14:52:40.800Z,94387.81
2022-08-20T14:59:05.594Z,94370.41
2022-08-20T15:01:33.410Z,94345.56
2022-08-20T15:04:01.174Z,94328.97
2022-08-20T15:06:29.218Z,94327.34
2022-08-20T15:08:56.776Z,94322.97
2022-08-20T15:11:24.493Z,94317.50
2022-08-20T15:13:53.850Z,94308.66
2022-08-20T15:21:21.962Z,94335.63
2022-08-20T15:23:49.874Z,94317.13
2022-08-20T15:26:17.675Z,94315.19
2022-08-20T15:28:45.371Z,94318.66
2022-08-20T15:31:14.447Z,94331.16
2022-08-20T15:33:42.542Z,94335.69
2022-08-20T15:36:10.506Z,94323.97
2022-08-20T15:43:16.484Z,94295.34
2022-08-20T15:45:44.241Z,94289.78
2022-08-20T15:48:14.263Z,94276.06
2022-08-20T15:50:57.159Z,94261.78
2022-08-20T15:53:31.248Z,94261.53
2022-08-20T15:56:08.153Z,94272.44
2022-08-20T16:03:13.836Z,94247.56
2022-08-20T16:05:50.852Z,94234.81
2022-08-20T16:08:44.269Z,94224.31
2022-08-20T16:11:26.040Z,94213.69
2022-08-20T16:13:57.495Z,94211.34
2022-08-20T16:16:32.348Z,94230.81
2022-08-20T16:26:06.066Z,94230.38
2022-08-20T16:28:43.810Z,94224.38
2022-08-20T16:31:17.401Z,94223.16
2022-08-20T16:33:57.569Z,94222.63
2022-08-20T16:36:34.676Z,94231.72
2022-08-20T16:39:05.556Z,94243.59
2022-08-20T16:44:32.702Z,94271.31
2022-08-20T16:47:14.206Z,94297.78
2022-08-20T16:49:46.511Z,94316.63
2022-08-20T16:52:14.253Z,94335.63
2022-08-20T16:54:44.418Z,94345.75
2022-08-20T16:57:17.201Z,94349.53
2022-08-20T17:02:32.326Z,94371.31
2022-08-20T17:05:06.558Z,94401.34
2022-08-20T17:07:46.319Z,94422.06
2022-08-20T17:10:20.094Z,94445.16
2022-08-20T17:12:53.469Z,94448.13
2022-08-20T17:15:25.416Z,94437.66
2022-08-20T17:17:55.369Z,94441.41
2022-08-20T17:25:28.785Z,94443.44
2022-08-20T17:28:00.040Z,94452.53
2022-08-20T17:30:36.263Z,94462.19
2022-08-20T17:33:08.198Z,94469.78
2022-08-20T17:35:40.740Z,94498.81
2022-08-20T17:38:20.438Z,94527.91
2022-08-20T17:43:31.124Z,94571.22
2022-08-20T17:46:03.902Z,94575.56
2022-08-20T17:48:36.739Z,94593.16
2022-08-20T17:51:15.048Z,94601.34
2022-08-20T17:53:47.006Z,94593.47
2022-08-20T17:56:19.644Z,94579.63
2022-08-20T18:03:52.465Z,94563.03
2022-08-20T18:06:30.503Z,94553.09
2022-08-20T18:09:04.172Z,94551.38
2022-08-20T18:11:36.804Z,94560.81
2022-08-20T18:14:35.732Z,94567.66
2022-08-20T18:17:14.271Z,94566.06
2022-08-20T18:25:19.536Z,94598.75
2022-08-20T18:27:50.874Z,94606.81
2022-08-20T18:30:21.138Z,94618.50
2022-08-20T18:32:51.203Z,94625.66
2022-08-20T18:35:22.939Z,94627.09
2022-08-20T18:37:52.111Z,94625.63
2022-08-20T18:40:31.103Z,94609.72
2022-08-20T18:45:39.530Z,94632.00
2022-08-20T18:48:08.246Z,94649.00
2022-08-20T18:50:46.230Z,94667.06
2022-08-20T18:53:17.909Z,94671.38
2022-08-20T18:55:48.072Z,94678.09
2022-08-20T18:58:30.229Z,94671.72
2022-08-20T19:06:21.792Z,94654.56
2022-08-20T19:08:54.054Z,94658.34
2022-08-20T19:11:57.282Z,94644.22
2022-08-20T19:15:00.673Z,94636.59
2022-08-20T19:17:42.354Z,94640.88
2022-08-20T19:20:14.988Z,94630.81
2022-08-20T19:27:41.930Z,94618.78
2022-08-20T19:30:11.518Z,94613.41
2022-08-20T19:32:44.542Z,94606.75
2022-08-20T19:35:18.407Z,94611.75
2022-08-20T19:37:51.515Z,94604.66
2022-08-20T19:40:24.487Z,94595.81
2022-08-20T19:45:57.565Z,94584.84
2022-08-20T19:48:49.487Z,94560.97
2022-08-20T19:51:26.298Z,94531.97
2022-08-20T19:53:53.994Z,94526.88
2022-08-20T19:56:24.722Z,94536.94
2022-08-20T19:59:00.637Z,94550.34
2022-08-20T20:07:08.729Z,94558.41
2022-08-20T20:09:41.079Z,94558.47
2022-08-20T20:12:21.478Z,94546.06
2022-08-20T20:14:53.233Z,94546.34
2022-08-20T20:17:23.406Z,94532.69
2022-08-20T20:19:56.170Z,94526.63
2022-08-20T20:22:27.787Z,94518.91
2022-08-20T20:30:02.479Z,94503.63
2022-08-20T20:32:33.641Z,94495.78
2022-08-20T20:35:05.255Z,94475.38
2022-08-20T20:37:50.145Z,94490.84
2022-08-20T20:40:26.011Z,94504.22
2022-08-20T20:43:00.728Z,94515.75
2022-08-20T20:49:26.457Z,94505.69
2022-08-20T20:51:59.033Z,94508.31
2022-08-20T20:54:30.124Z,94510.38
2022-08-20T20:57:01.338Z,94508.41
2022-08-20T20:59:30.896Z,94502.44
2022-08-20T21:01:58.840Z,94486.16
2022-08-20T21:04:27.627Z,94481.66
2022-08-20T21:11:58.625Z,94480.66
2022-08-20T21:14:26.522Z,94471.94
2022-08-20T21:16:55.574Z,94472.16
2022-08-20T21:19:23.241Z,94465.28
2022-08-20T21:21:50.781Z,94458.03
2022-08-20T21:24:18.341Z,94451.94
2022-08-20T21:26:46.110Z,94442.31
2022-08-20T21:34:15.156Z,94432.59
2022-08-20T21:36:42.817Z,94432.88
2022-08-20T21:39:11.064Z,94437.44
2022-08-20T21:41:39.504Z,94428.00
2022-08-20T21:44:13.992Z,94425.34
2022-08-20T21:46:42.979Z,94417.78
2022-08-20T21:49:10.495Z,94411.72
2022-08-20T21:56:33.263Z,94390.66
2022-08-20T21:59:01.412Z,94386.56
2022-08-20T22:01:29.191Z,94383.69
2022-08-20T22:03:56.701Z,94382.91
2022-08-20T22:06:25.090Z,94377.09
2022-08-20T22:08:52.934Z,94376.81
2022-08-20T22:11:20.793Z,94371.28
2022-08-20T22:18:53.090Z,94368.91
2022-08-20T22:21:23.208Z,94374.78
2022-08-20T22:23:51.455Z,94376.75
2022-08-20T22:26:19.965Z,94377.25
2022-08-20T22:28:51.049Z,94375.28
2022-08-20T22:31:22.424Z,94374.72
2022-08-20T22:33:50.177Z,94381.97
2022-08-20T22:41:17.691Z,94390.22
2022-08-20T22:43:55.762Z,94382.34
2022-08-20T22:46:26.739Z,94392.84
2022-08-20T22:48:55.483Z,94383.72
2022-08-20T22:51:29.046Z,94392.78
2022-08-20T22:53:58.414Z,94379.56
2022-08-20T22:56:27.274Z,94374.22
2022-08-20T23:04:09.798Z,94383.13
2022-08-20T23:06:37.513Z,94380.28
2022-08-20T23:09:05.325Z,94380.75
2022-08-20T23:11:32.990Z,94391.78
2022-08-20T23:14:00.533Z,94384.13
2022-08-20T23:16:28.229Z,94395.66
2022-08-20T23:18:55.930Z,94397.53
2022-08-20T23:26:26.670Z,94394.34
2022-08-20T23:28:54.168Z,94393.94
2022-08-20T23:31:21.654Z,94390.47
2022-08-20T23:33:48.945Z,94385.50
2022-08-20T23:36:20.485Z,94374.59
2022-08-20T23:38:48.041Z,94378.25
2022-08-20T23:41:15.844Z,94378.34
2022-08-20T23:48:42.718Z,94385.50
2022-08-20T23:51:10.208Z,94382.53
2022-08-20T23:53:38.700Z,94388.78
2022-08-20T23:56:06.549Z,94392.25
2022-08-20T23:58:34.284Z,94378.34
